sensor_id;sensor_type;location;lat;lon;timestamp;P1;durP1;ratioP1;P2;durP2;ratioP2
7426;SDS011;3755;59.316;18.092;2023-02-24T00:02:25;5.77;;;4.30;;
7426;SDS011;3755;59.316;18.092;2023-02-24T00:04:53;4.87;;;3.60;;
7426;SDS011;3755;59.316;18.092;2023-02-24T00:07:22;5.07;;;3.40;;
7426;SDS011;3755;59.316;18.092;2023-02-24T00:09:49;4.00;;;3.17;;
7426;SDS011;3755;59.316;18.092;2023-02-24T00:12:16;3.20;;;2.60;;
7426;SDS011;3755;59.316;18.092;2023-02-24T00:14:45;3.93;;;2.90;;
7426;SDS011;3755;59.316;18.092;2023-02-24T00:17:36;3.83;;;3.40;;
7426;SDS011;3755;59.316;18.092;2023-02-24T00:20:24;5.27;;;4.00;;
7426;SDS011;3755;59.316;18.092;2023-02-24T00:22:52;6.83;;;4.90;;
7426;SDS011;3755;59.316;18.092;2023-02-24T00:25:21;7.87;;;5.47;;
7426;SDS011;3755;59.316;18.092;2023-02-24T00:27:49;5.87;;;3.50;;
7426;SDS011;3755;59.316;18.092;2023-02-24T00:30:17;4.03;;;3.10;;
7426;SDS011;3755;59.316;18.092;2023-02-24T00:32:47;4.70;;;3.93;;
7426;SDS011;3755;59.316;18.092;2023-02-24T00:35:14;4.87;;;3.40;;
7426;SDS011;3755;59.316;18.092;2023-02-24T00:37:44;4.60;;;3.60;;
7426;SDS011;3755;59.316;18.092;2023-02-24T00:40:15;6.50;;;3.87;;
7426;SDS011;3755;59.316;18.092;2023-02-24T00:42:47;4.47;;;3.80;;
7426;SDS011;3755;59.316;18.092;2023-02-24T00:45:15;5.23;;;4.17;;
7426;SDS011;3755;59.316;18.092;2023-02-24T00:47:42;4.57;;;3.70;;
7426;SDS011;3755;59.316;18.092;2023-02-24T00:50:13;7.53;;;3.90;;
7426;SDS011;3755;59.316;18.092;2023-02-24T00:52:41;6.73;;;3.87;;
7426;SDS011;3755;59.316;18.092;2023-02-24T00:55:09;6.27;;;4.20;;
7426;SDS011;3755;59.316;18.092;2023-02-24T00:57:39;4.93;;;3.57;;
7426;SDS011;3755;59.316;18.092;2023-02-24T01:00:07;4.87;;;3.57;;
7426;SDS011;3755;59.316;18.092;2023-02-24T01:02:41;5.83;;;3.43;;
7426;SDS011;3755;59.316;18.092;2023-02-24T01:05:12;4.00;;;2.93;;
7426;SDS011;3755;59.316;18.092;2023-02-24T01:07:40;6.40;;;3.50;;
7426;SDS011;3755;59.316;18.092;2023-02-24T01:10:10;3.33;;;2.63;;
7426;SDS011;3755;59.316;18.092;2023-02-24T01:12:37;4.30;;;3.30;;
7426;SDS011;3755;59.316;18.092;2023-02-24T01:15:14;4.37;;;2.90;;
7426;SDS011;3755;59.316;18.092;2023-02-24T01:17:42;3.67;;;3.00;;
7426;SDS011;3755;59.316;18.092;2023-02-24T01:20:10;3.30;;;2.77;;
7426;SDS011;3755;59.316;18.092;2023-02-24T01:22:46;3.60;;;3.10;;
7426;SDS011;3755;59.316;18.092;2023-02-24T01:25:15;5.10;;;3.30;;
7426;SDS011;3755;59.316;18.092;2023-02-24T01:27:44;4.30;;;2.87;;
7426;SDS011;3755;59.316;18.092;2023-02-24T01:30:11;4.87;;;3.40;;
7426;SDS011;3755;59.316;18.092;2023-02-24T01:32:42;3.63;;;3.20;;
7426;SDS011;3755;59.316;18.092;2023-02-24T01:35:13;3.40;;;2.80;;
7426;SDS011;3755;59.316;18.092;2023-02-24T01:37:41;6.40;;;4.60;;
7426;SDS011;3755;59.316;18.092;2023-02-24T01:40:10;5.20;;;4.10;;
7426;SDS011;3755;59.316;18.092;2023-02-24T01:42:44;4.67;;;3.57;;
7426;SDS011;3755;59.316;18.092;2023-02-24T01:45:15;4.30;;;3.53;;
7426;SDS011;3755;59.316;18.092;2023-02-24T01:47:45;5.53;;;4.33;;
7426;SDS011;3755;59.316;18.092;2023-02-24T01:50:15;5.60;;;3.50;;
7426;SDS011;3755;59.316;18.092;2023-02-24T01:52:46;5.87;;;3.70;;
7426;SDS011;3755;59.316;18.092;2023-02-24T01:55:17;5.73;;;4.10;;
7426;SDS011;3755;59.316;18.092;2023-02-24T01:57:47;5.03;;;3.90;;
7426;SDS011;3755;59.316;18.092;2023-02-24T02:00:17;6.77;;;3.83;;
7426;SDS011;3755;59.316;18.092;2023-02-24T02:03:01;4.20;;;3.40;;
7426;SDS011;3755;59.316;18.092;2023-02-24T02:05:34;5.23;;;4.07;;
7426;SDS011;3755;59.316;18.092;2023-02-24T02:08:04;4.80;;;3.37;;
7426;SDS011;3755;59.316;18.092;2023-02-24T02:10:33;5.07;;;3.57;;
7426;SDS011;3755;59.316;18.092;2023-02-24T02:13:03;5.43;;;4.30;;
7426;SDS011;3755;59.316;18.092;2023-02-24T02:15:31;5.13;;;3.87;;
7426;SDS011;3755;59.316;18.092;2023-02-24T02:18:07;3.83;;;3.43;;
7426;SDS011;3755;59.316;18.092;2023-02-24T02:20:57;4.00;;;3.20;;
7426;SDS011;3755;59.316;18.092;2023-02-24T02:23:55;3.50;;;2.73;;
7426;SDS011;3755;59.316;18.092;2023-02-24T02:26:41;4.17;;;3.13;;
7426;SDS011;3755;59.316;18.092;2023-02-24T02:32:42;4.47;;;3.53;;
7426;SDS011;3755;59.316;18.092;2023-02-24T02:35:19;4.80;;;4.00;;
7426;SDS011;3755;59.316;18.092;2023-02-24T02:37:51;3.90;;;3.00;;
7426;SDS011;3755;59.316;18.092;2023-02-24T02:40:22;6.37;;;3.60;;
7426;SDS011;3755;59.316;18.092;2023-02-24T02:42:53;4.10;;;3.10;;
7426;SDS011;3755;59.316;18.092;2023-02-24T02:45:26;4.57;;;3.33;;
7426;SDS011;3755;59.316;18.092;2023-02-24T02:47:58;4.13;;;2.80;;
7426;SDS011;3755;59.316;18.092;2023-02-24T02:50:33;3.93;;;2.97;;
7426;SDS011;3755;59.316;18.092;2023-02-24T02:53:07;3.80;;;2.87;;
7426;SDS011;3755;59.316;18.092;2023-02-24T02:55:39;4.00;;;2.87;;
7426;SDS011;3755;59.316;18.092;2023-02-24T02:58:11;3.50;;;2.93;;
7426;SDS011;3755;59.316;18.092;2023-02-24T03:00:43;2.77;;;2.40;;
7426;SDS011;3755;59.316;18.092;2023-02-24T03:03:25;3.47;;;2.50;;
7426;SDS011;3755;59.316;18.092;2023-02-24T03:05:58;3.20;;;2.60;;
7426;SDS011;3755;59.316;18.092;2023-02-24T03:08:29;3.97;;;2.50;;
7426;SDS011;3755;59.316;18.092;2023-02-24T03:11:02;3.23;;;2.37;;
7426;SDS011;3755;59.316;18.092;2023-02-24T03:13:33;4.57;;;3.00;;
7426;SDS011;3755;59.316;18.092;2023-02-24T03:16:05;4.33;;;2.77;;
7426;SDS011;3755;59.316;18.092;2023-02-24T03:18:34;4.80;;;3.10;;
7426;SDS011;3755;59.316;18.092;2023-02-24T03:21:08;3.93;;;3.10;;
7426;SDS011;3755;59.316;18.092;2023-02-24T03:23:39;4.80;;;3.30;;
7426;SDS011;3755;59.316;18.092;2023-02-24T03:26:12;3.73;;;3.20;;
7426;SDS011;3755;59.316;18.092;2023-02-24T03:28:49;4.53;;;3.30;;
7426;SDS011;3755;59.316;18.092;2023-02-24T03:31:25;4.63;;;3.23;;
7426;SDS011;3755;59.316;18.092;2023-02-24T03:33:56;3.60;;;2.63;;
7426;SDS011;3755;59.316;18.092;2023-02-24T03:36:29;3.43;;;2.50;;
7426;SDS011;3755;59.316;18.092;2023-02-24T03:38:57;3.20;;;2.60;;
7426;SDS011;3755;59.316;18.092;2023-02-24T03:41:26;4.40;;;3.30;;
7426;SDS011;3755;59.316;18.092;2023-02-24T03:44:00;4.87;;;3.00;;
7426;SDS011;3755;59.316;18.092;2023-02-24T03:46:29;4.40;;;3.40;;
7426;SDS011;3755;59.316;18.092;2023-02-24T03:48:58;4.93;;;3.30;;
7426;SDS011;3755;59.316;18.092;2023-02-24T03:51:37;4.30;;;3.67;;
7426;SDS011;3755;59.316;18.092;2023-02-24T03:54:11;4.37;;;3.30;;
7426;SDS011;3755;59.316;18.092;2023-02-24T03:56:58;4.13;;;2.90;;
7426;SDS011;3755;59.316;18.092;2023-02-24T03:59:39;4.80;;;3.40;;
7426;SDS011;3755;59.316;18.092;2023-02-24T04:02:12;5.80;;;3.30;;
7426;SDS011;3755;59.316;18.092;2023-02-24T04:04:44;3.37;;;3.07;;
7426;SDS011;3755;59.316;18.092;2023-02-24T04:07:19;4.37;;;3.70;;
7426;SDS011;3755;59.316;18.092;2023-02-24T04:10:01;4.43;;;3.63;;
7426;SDS011;3755;59.316;18.092;2023-02-24T04:12:34;4.53;;;3.97;;
7426;SDS011;3755;59.316;18.092;2023-02-24T04:15:08;5.20;;;3.80;;
7426;SDS011;3755;59.316;18.092;2023-02-24T04:17:42;5.37;;;3.87;;
7426;SDS011;3755;59.316;18.092;2023-02-24T04:20:12;6.60;;;3.70;;
7426;SDS011;3755;59.316;18.092;2023-02-24T04:22:46;5.77;;;4.33;;
7426;SDS011;3755;59.316;18.092;2023-02-24T04:25:15;3.13;;;2.60;;
7426;SDS011;3755;59.316;18.092;2023-02-24T04:27:48;3.73;;;3.20;;
7426;SDS011;3755;59.316;18.092;2023-02-24T04:30:17;3.93;;;3.10;;
7426;SDS011;3755;59.316;18.092;2023-02-24T04:32:45;3.93;;;3.50;;
7426;SDS011;3755;59.316;18.092;2023-02-24T04:35:14;3.43;;;2.90;;
7426;SDS011;3755;59.316;18.092;2023-02-24T04:37:46;3.77;;;3.10;;
7426;SDS011;3755;59.316;18.092;2023-02-24T04:40:14;4.33;;;3.17;;
7426;SDS011;3755;59.316;18.092;2023-02-24T04:42:43;3.63;;;3.00;;
7426;SDS011;3755;59.316;18.092;2023-02-24T04:45:14;4.17;;;3.20;;
7426;SDS011;3755;59.316;18.092;2023-02-24T04:47:43;4.83;;;3.57;;
7426;SDS011;3755;59.316;18.092;2023-02-24T04:50:14;5.73;;;3.23;;
7426;SDS011;3755;59.316;18.092;2023-02-24T04:52:51;3.90;;;3.07;;
7426;SDS011;3755;59.316;18.092;2023-02-24T04:55:20;4.33;;;3.33;;
7426;SDS011;3755;59.316;18.092;2023-02-24T04:57:51;3.30;;;2.80;;
7426;SDS011;3755;59.316;18.092;2023-02-24T05:00:19;3.03;;;2.73;;
7426;SDS011;3755;59.316;18.092;2023-02-24T05:02:50;4.53;;;2.90;;
7426;SDS011;3755;59.316;18.092;2023-02-24T05:05:32;3.03;;;2.73;;
7426;SDS011;3755;59.316;18.092;2023-02-24T05:08:02;3.77;;;3.07;;
7426;SDS011;3755;59.316;18.092;2023-02-24T05:10:34;4.50;;;3.13;;
7426;SDS011;3755;59.316;18.092;2023-02-24T05:13:03;4.20;;;3.23;;
7426;SDS011;3755;59.316;18.092;2023-02-24T05:15:32;3.77;;;2.90;;
7426;SDS011;3755;59.316;18.092;2023-02-24T05:18:02;4.53;;;3.60;;
7426;SDS011;3755;59.316;18.092;2023-02-24T05:20:34;5.83;;;3.90;;
7426;SDS011;3755;59.316;18.092;2023-02-24T05:23:24;3.93;;;3.30;;
7426;SDS011;3755;59.316;18.092;2023-02-24T05:25:52;5.30;;;3.90;;
7426;SDS011;3755;59.316;18.092;2023-02-24T05:31:28;4.97;;;3.50;;
7426;SDS011;3755;59.316;18.092;2023-02-24T05:34:02;3.50;;;2.67;;
7426;SDS011;3755;59.316;18.092;2023-02-24T05:36:32;4.20;;;3.77;;
7426;SDS011;3755;59.316;18.092;2023-02-24T05:39:03;4.53;;;3.50;;
7426;SDS011;3755;59.316;18.092;2023-02-24T05:41:44;4.23;;;3.83;;
7426;SDS011;3755;59.316;18.092;2023-02-24T05:44:14;5.67;;;3.23;;
7426;SDS011;3755;59.316;18.092;2023-02-24T05:46:57;4.57;;;3.40;;
7426;SDS011;3755;59.316;18.092;2023-02-24T05:49:30;5.10;;;3.70;;
7426;SDS011;3755;59.316;18.092;2023-02-24T05:52:03;3.60;;;3.07;;
7426;SDS011;3755;59.316;18.092;2023-02-24T05:54:36;3.77;;;3.10;;
7426;SDS011;3755;59.316;18.092;2023-02-24T05:57:05;4.80;;;3.40;;
7426;SDS011;3755;59.316;18.092;2023-02-24T05:59:36;4.67;;;3.93;;
7426;SDS011;3755;59.316;18.092;2023-02-24T06:02:04;4.87;;;3.47;;
7426;SDS011;3755;59.316;18.092;2023-02-24T06:04:35;3.93;;;3.13;;
7426;SDS011;3755;59.316;18.092;2023-02-24T06:07:13;5.33;;;3.67;;
7426;SDS011;3755;59.316;18.092;2023-02-24T06:09:53;4.60;;;3.10;;
7426;SDS011;3755;59.316;18.092;2023-02-24T06:12:41;4.23;;;3.50;;
7426;SDS011;3755;59.316;18.092;2023-02-24T06:15:26;4.03;;;3.60;;
7426;SDS011;3755;59.316;18.092;2023-02-24T06:17:54;3.57;;;3.23;;
7426;SDS011;3755;59.316;18.092;2023-02-24T06:20:26;4.53;;;3.43;;
7426;SDS011;3755;59.316;18.092;2023-02-24T06:22:58;4.27;;;3.33;;
7426;SDS011;3755;59.316;18.092;2023-02-24T06:25:28;3.87;;;3.30;;
7426;SDS011;3755;59.316;18.092;2023-02-24T06:27:57;4.63;;;2.83;;
7426;SDS011;3755;59.316;18.092;2023-02-24T06:30:34;3.63;;;2.87;;
7426;SDS011;3755;59.316;18.092;2023-02-24T06:33:03;4.40;;;3.27;;
7426;SDS011;3755;59.316;18.092;2023-02-24T06:35:32;4.33;;;3.00;;
7426;SDS011;3755;59.316;18.092;2023-02-24T06:38:04;5.37;;;3.50;;
7426;SDS011;3755;59.316;18.092;2023-02-24T06:40:35;5.57;;;3.63;;
7426;SDS011;3755;59.316;18.092;2023-02-24T06:43:07;4.63;;;3.43;;
7426;SDS011;3755;59.316;18.092;2023-02-24T06:45:35;4.73;;;3.50;;
7426;SDS011;3755;59.316;18.092;2023-02-24T06:48:04;3.60;;;3.10;;
7426;SDS011;3755;59.316;18.092;2023-02-24T06:50:33;3.13;;;2.83;;
7426;SDS011;3755;59.316;18.092;2023-02-24T06:53:01;4.50;;;2.97;;
7426;SDS011;3755;59.316;18.092;2023-02-24T06:55:28;5.20;;;3.00;;
7426;SDS011;3755;59.316;18.092;2023-02-24T07:01:01;4.00;;;3.10;;
7426;SDS011;3755;59.316;18.092;2023-02-24T07:03:28;4.07;;;2.83;;
7426;SDS011;3755;59.316;18.092;2023-02-24T07:06:05;3.77;;;2.80;;
7426;SDS011;3755;59.316;18.092;2023-02-24T07:08:51;4.63;;;2.73;;
7426;SDS011;3755;59.316;18.092;2023-02-24T07:11:19;4.20;;;3.10;;
7426;SDS011;3755;59.316;18.092;2023-02-24T07:13:48;3.87;;;2.93;;
7426;SDS011;3755;59.316;18.092;2023-02-24T07:16:20;3.07;;;2.20;;
7426;SDS011;3755;59.316;18.092;2023-02-24T07:18:51;1.60;;;1.50;;
7426;SDS011;3755;59.316;18.092;2023-02-24T07:21:21;4.47;;;2.20;;
7426;SDS011;3755;59.316;18.092;2023-02-24T07:23:49;2.23;;;1.60;;
7426;SDS011;3755;59.316;18.092;2023-02-24T07:26:21;2.90;;;1.90;;
7426;SDS011;3755;59.316;18.092;2023-02-24T07:28:54;2.07;;;1.80;;
7426;SDS011;3755;59.316;18.092;2023-02-24T07:31:31;3.57;;;2.03;;
7426;SDS011;3755;59.316;18.092;2023-02-24T07:33:59;2.77;;;2.20;;
7426;SDS011;3755;59.316;18.092;2023-02-24T07:36:26;3.33;;;2.40;;
7426;SDS011;3755;59.316;18.092;2023-02-24T07:38:59;2.50;;;1.90;;
7426;SDS011;3755;59.316;18.092;2023-02-24T07:41:27;3.73;;;2.10;;
7426;SDS011;3755;59.316;18.092;2023-02-24T07:43:56;3.20;;;2.03;;
7426;SDS011;3755;59.316;18.092;2023-02-24T07:46:27;2.90;;;2.40;;
7426;SDS011;3755;59.316;18.092;2023-02-24T07:48:56;3.77;;;2.53;;
7426;SDS011;3755;59.316;18.092;2023-02-24T07:51:25;3.07;;;2.33;;
7426;SDS011;3755;59.316;18.092;2023-02-24T07:53:54;4.97;;;2.50;;
7426;SDS011;3755;59.316;18.092;2023-02-24T07:56:24;2.83;;;2.03;;
7426;SDS011;3755;59.316;18.092;2023-02-24T07:58:58;2.20;;;2.00;;
7426;SDS011;3755;59.316;18.092;2023-02-24T08:01:27;2.67;;;1.97;;
7426;SDS011;3755;59.316;18.092;2023-02-24T08:04:05;3.13;;;1.70;;
7426;SDS011;3755;59.316;18.092;2023-02-24T08:06:37;4.53;;;2.00;;
7426;SDS011;3755;59.316;18.092;2023-02-24T08:09:09;2.63;;;2.00;;
7426;SDS011;3755;59.316;18.092;2023-02-24T08:11:42;2.00;;;1.60;;
7426;SDS011;3755;59.316;18.092;2023-02-24T08:14:11;2.20;;;2.00;;
7426;SDS011;3755;59.316;18.092;2023-02-24T08:16:42;2.13;;;1.70;;
7426;SDS011;3755;59.316;18.092;2023-02-24T08:19:12;2.47;;;1.63;;
7426;SDS011;3755;59.316;18.092;2023-02-24T08:21:45;2.77;;;1.63;;
7426;SDS011;3755;59.316;18.092;2023-02-24T08:24:16;1.90;;;1.70;;
7426;SDS011;3755;59.316;18.092;2023-02-24T08:26:48;2.40;;;1.70;;
7426;SDS011;3755;59.316;18.092;2023-02-24T08:29:29;2.53;;;1.97;;
7426;SDS011;3755;59.316;18.092;2023-02-24T08:32:04;4.23;;;1.73;;
7426;SDS011;3755;59.316;18.092;2023-02-24T08:34:35;1.90;;;1.67;;
7426;SDS011;3755;59.316;18.092;2023-02-24T08:37:03;3.00;;;1.80;;
7426;SDS011;3755;59.316;18.092;2023-02-24T08:39:34;3.43;;;2.20;;
7426;SDS011;3755;59.316;18.092;2023-02-24T08:42:01;4.10;;;1.90;;
7426;SDS011;3755;59.316;18.092;2023-02-24T08:44:31;3.77;;;2.00;;
7426;SDS011;3755;59.316;18.092;2023-02-24T08:47:02;2.70;;;1.87;;
7426;SDS011;3755;59.316;18.092;2023-02-24T08:49:45;3.33;;;2.00;;
7426;SDS011;3755;59.316;18.092;2023-02-24T08:52:15;3.07;;;1.90;;
7426;SDS011;3755;59.316;18.092;2023-02-24T08:54:51;3.20;;;1.70;;
7426;SDS011;3755;59.316;18.092;2023-02-24T08:57:23;3.60;;;1.80;;
7426;SDS011;3755;59.316;18.092;2023-02-24T08:59:52;3.43;;;1.90;;
7426;SDS011;3755;59.316;18.092;2023-02-24T09:02:23;2.60;;;2.00;;
7426;SDS011;3755;59.316;18.092;2023-02-24T09:04:57;2.27;;;1.60;;
7426;SDS011;3755;59.316;18.092;2023-02-24T09:07:28;3.47;;;1.80;;
7426;SDS011;3755;59.316;18.092;2023-02-24T09:09:59;2.30;;;1.30;;
7426;SDS011;3755;59.316;18.092;2023-02-24T09:12:28;2.40;;;2.10;;
7426;SDS011;3755;59.316;18.092;2023-02-24T09:14:56;2.90;;;1.37;;
7426;SDS011;3755;59.316;18.092;2023-02-24T09:17:28;1.77;;;1.27;;
7426;SDS011;3755;59.316;18.092;2023-02-24T09:20:16;2.10;;;1.43;;
7426;SDS011;3755;59.316;18.092;2023-02-24T09:23:02;3.10;;;1.77;;
7426;SDS011;3755;59.316;18.092;2023-02-24T09:25:31;2.87;;;1.30;;
7426;SDS011;3755;59.316;18.092;2023-02-24T09:28:08;2.80;;;1.30;;
7426;SDS011;3755;59.316;18.092;2023-02-24T09:30:41;1.27;;;1.17;;
7426;SDS011;3755;59.316;18.092;2023-02-24T09:33:18;2.57;;;1.30;;
7426;SDS011;3755;59.316;18.092;2023-02-24T09:36:02;2.63;;;1.10;;
7426;SDS011;3755;59.316;18.092;2023-02-24T09:38:35;2.90;;;1.40;;
7426;SDS011;3755;59.316;18.092;2023-02-24T09:41:21;2.97;;;1.33;;
7426;SDS011;3755;59.316;18.092;2023-02-24T09:43:58;4.50;;;1.37;;
7426;SDS011;3755;59.316;18.092;2023-02-24T09:46:29;1.83;;;1.20;;
7426;SDS011;3755;59.316;18.092;2023-02-24T09:49:02;1.23;;;1.10;;
7426;SDS011;3755;59.316;18.092;2023-02-24T09:51:38;1.40;;;1.10;;
7426;SDS011;3755;59.316;18.092;2023-02-24T09:54:11;2.37;;;1.20;;
7426;SDS011;3755;59.316;18.092;2023-02-24T09:56:43;2.93;;;1.33;;
7426;SDS011;3755;59.316;18.092;2023-02-24T09:59:33;2.53;;;1.50;;
7426;SDS011;3755;59.316;18.092;2023-02-24T10:02:18;2.03;;;1.30;;
7426;SDS011;3755;59.316;18.092;2023-02-24T10:04:54;1.40;;;1.00;;
7426;SDS011;3755;59.316;18.092;2023-02-24T10:07:34;2.43;;;1.40;;
7426;SDS011;3755;59.316;18.092;2023-02-24T10:10:07;2.83;;;1.40;;
7426;SDS011;3755;59.316;18.092;2023-02-24T10:12:46;1.63;;;1.40;;
7426;SDS011;3755;59.316;18.092;2023-02-24T10:15:18;2.37;;;1.57;;
7426;SDS011;3755;59.316;18.092;2023-02-24T10:18:25;1.83;;;1.10;;
7426;SDS011;3755;59.316;18.092;2023-02-24T10:20:55;2.47;;;1.70;;
7426;SDS011;3755;59.316;18.092;2023-02-24T10:23:31;2.13;;;0.80;;
7426;SDS011;3755;59.316;18.092;2023-02-24T10:26:11;1.07;;;0.90;;
7426;SDS011;3755;59.316;18.092;2023-02-24T10:28:57;2.40;;;1.10;;
7426;SDS011;3755;59.316;18.092;2023-02-24T10:31:35;2.03;;;1.20;;
7426;SDS011;3755;59.316;18.092;2023-02-24T10:34:07;1.27;;;0.90;;
7426;SDS011;3755;59.316;18.092;2023-02-24T10:36:44;1.23;;;1.07;;
7426;SDS011;3755;59.316;18.092;2023-02-24T10:39:16;2.77;;;1.00;;
7426;SDS011;3755;59.316;18.092;2023-02-24T10:41:50;2.23;;;1.13;;
7426;SDS011;3755;59.316;18.092;2023-02-24T10:44:22;1.33;;;0.90;;
7426;SDS011;3755;59.316;18.092;2023-02-24T10:46:59;3.73;;;1.10;;
7426;SDS011;3755;59.316;18.092;2023-02-24T10:49:39;2.30;;;1.07;;
7426;SDS011;3755;59.316;18.092;2023-02-24T10:52:21;2.93;;;0.90;;
7426;SDS011;3755;59.316;18.092;2023-02-24T10:55:08;3.70;;;1.50;;
7426;SDS011;3755;59.316;18.092;2023-02-24T10:57:53;2.50;;;1.73;;
7426;SDS011;3755;59.316;18.092;2023-02-24T11:00:37;2.60;;;1.10;;
7426;SDS011;3755;59.316;18.092;2023-02-24T11:03:37;2.03;;;1.37;;
7426;SDS011;3755;59.316;18.092;2023-02-24T11:06:16;3.00;;;1.63;;
7426;SDS011;3755;59.316;18.092;2023-02-24T11:09:14;2.03;;;1.63;;
7426;SDS011;3755;59.316;18.092;2023-02-24T11:11:59;3.47;;;2.00;;
7426;SDS011;3755;59.316;18.092;2023-02-24T11:14:53;5.40;;;1.70;;
7426;SDS011;3755;59.316;18.092;2023-02-24T11:17:44;3.40;;;1.70;;
7426;SDS011;3755;59.316;18.092;2023-02-24T11:20:18;2.50;;;1.37;;
7426;SDS011;3755;59.316;18.092;2023-02-24T11:22:52;3.23;;;1.50;;
7426;SDS011;3755;59.316;18.092;2023-02-24T11:25:23;3.27;;;2.00;;
7426;SDS011;3755;59.316;18.092;2023-02-24T11:27:54;1.73;;;1.20;;
7426;SDS011;3755;59.316;18.092;2023-02-24T11:30:25;1.73;;;1.00;;
7426;SDS011;3755;59.316;18.092;2023-02-24T11:33:06;2.60;;;1.30;;
7426;SDS011;3755;59.316;18.092;2023-02-24T11:35:45;2.93;;;1.70;;
7426;SDS011;3755;59.316;18.092;2023-02-24T11:38:25;1.83;;;1.33;;
7426;SDS011;3755;59.316;18.092;2023-02-24T11:41:02;2.30;;;1.10;;
7426;SDS011;3755;59.316;18.092;2023-02-24T11:43:36;2.17;;;1.10;;
7426;SDS011;3755;59.316;18.092;2023-02-24T11:46:09;3.07;;;1.50;;
7426;SDS011;3755;59.316;18.092;2023-02-24T11:48:42;3.13;;;1.53;;
7426;SDS011;3755;59.316;18.092;2023-02-24T11:51:17;5.33;;;3.07;;
7426;SDS011;3755;59.316;18.092;2023-02-24T11:53:50;2.17;;;1.10;;
7426;SDS011;3755;59.316;18.092;2023-02-24T11:56:21;1.83;;;1.00;;
7426;SDS011;3755;59.316;18.092;2023-02-24T11:58:56;2.70;;;1.70;;
7426;SDS011;3755;59.316;18.092;2023-02-24T12:01:30;2.07;;;1.10;;
7426;SDS011;3755;59.316;18.092;2023-02-24T12:04:08;3.23;;;1.13;;
7426;SDS011;3755;59.316;18.092;2023-02-24T12:06:47;4.60;;;1.37;;
7426;SDS011;3755;59.316;18.092;2023-02-24T12:09:24;3.83;;;1.73;;
7426;SDS011;3755;59.316;18.092;2023-02-24T12:11:57;2.90;;;1.47;;
7426;SDS011;3755;59.316;18.092;2023-02-24T12:14:30;4.23;;;1.00;;
7426;SDS011;3755;59.316;18.092;2023-02-24T12:17:10;3.53;;;1.40;;
7426;SDS011;3755;59.316;18.092;2023-02-24T12:19:47;0.90;;;0.80;;
7426;SDS011;3755;59.316;18.092;2023-02-24T12:22:27;1.93;;;0.83;;
7426;SDS011;3755;59.316;18.092;2023-02-24T12:25:04;1.87;;;0.90;;
7426;SDS011;3755;59.316;18.092;2023-02-24T12:27:40;3.50;;;1.30;;
7426;SDS011;3755;59.316;18.092;2023-02-24T12:33:31;3.47;;;1.27;;
7426;SDS011;3755;59.316;18.092;2023-02-24T12:36:12;1.70;;;0.97;;
7426;SDS011;3755;59.316;18.092;2023-02-24T12:38:49;3.23;;;1.10;;
7426;SDS011;3755;59.316;18.092;2023-02-24T12:41:30;1.40;;;1.00;;
7426;SDS011;3755;59.316;18.092;2023-02-24T12:44:10;1.27;;;1.10;;
7426;SDS011;3755;59.316;18.092;2023-02-24T12:50:09;2.03;;;1.00;;
7426;SDS011;3755;59.316;18.092;2023-02-24T12:52:59;2.27;;;1.20;;
7426;SDS011;3755;59.316;18.092;2023-02-24T12:55:41;2.50;;;1.10;;
7426;SDS011;3755;59.316;18.092;2023-02-24T12:58:14;1.90;;;1.20;;
7426;SDS011;3755;59.316;18.092;2023-02-24T13:00:53;3.10;;;1.40;;
7426;SDS011;3755;59.316;18.092;2023-02-24T13:03:37;4.13;;;1.40;;
7426;SDS011;3755;59.316;18.092;2023-02-24T13:06:26;2.87;;;1.10;;
7426;SDS011;3755;59.316;18.092;2023-02-24T13:09:16;2.80;;;1.07;;
7426;SDS011;3755;59.316;18.092;2023-02-24T13:12:05;4.57;;;1.13;;
7426;SDS011;3755;59.316;18.092;2023-02-24T13:14:54;2.80;;;1.27;;
7426;SDS011;3755;59.316;18.092;2023-02-24T13:17:44;3.07;;;1.53;;
7426;SDS011;3755;59.316;18.092;2023-02-24T13:20:28;5.20;;;1.27;;
7426;SDS011;3755;59.316;18.092;2023-02-24T13:23:18;3.53;;;1.13;;
7426;SDS011;3755;59.316;18.092;2023-02-24T13:25:49;3.77;;;1.10;;
7426;SDS011;3755;59.316;18.092;2023-02-24T13:28:21;4.07;;;1.50;;
7426;SDS011;3755;59.316;18.092;2023-02-24T13:30:56;2.07;;;1.10;;
7426;SDS011;3755;59.316;18.092;2023-02-24T13:33:27;4.80;;;1.30;;
7426;SDS011;3755;59.316;18.092;2023-02-24T13:39:03;2.40;;;1.30;;
7426;SDS011;3755;59.316;18.092;2023-02-24T13:41:34;2.37;;;1.20;;
7426;SDS011;3755;59.316;18.092;2023-02-24T13:44:20;3.90;;;1.60;;
7426;SDS011;3755;59.316;18.092;2023-02-24T13:47:15;4.03;;;1.50;;
7426;SDS011;3755;59.316;18.092;2023-02-24T13:59:28;4.03;;;1.43;;
7426;SDS011;3755;59.316;18.092;2023-02-24T14:02:28;4.40;;;1.17;;
7426;SDS011;3755;59.316;18.092;2023-02-24T14:05:10;2.73;;;1.10;;
7426;SDS011;3755;59.316;18.092;2023-02-24T14:08:23;3.00;;;1.10;;
7426;SDS011;3755;59.316;18.092;2023-02-24T14:11:15;3.37;;;1.37;;
7426;SDS011;3755;59.316;18.092;2023-02-24T14:14:04;4.17;;;1.33;;
7426;SDS011;3755;59.316;18.092;2023-02-24T14:26:17;2.87;;;1.30;;
7426;SDS011;3755;59.316;18.092;2023-02-24T14:29:00;2.73;;;1.40;;
7426;SDS011;3755;59.316;18.092;2023-02-24T14:31:45;4.47;;;1.70;;
7426;SDS011;3755;59.316;18.092;2023-02-24T14:34:16;4.03;;;1.37;;
7426;SDS011;3755;59.316;18.092;2023-02-24T14:37:01;1.70;;;1.13;;
7426;SDS011;3755;59.316;18.092;2023-02-24T14:39:48;4.07;;;1.30;;
7426;SDS011;3755;59.316;18.092;2023-02-24T14:45:46;3.00;;;1.00;;
7426;SDS011;3755;59.316;18.092;2023-02-24T14:48:19;2.70;;;0.90;;
7426;SDS011;3755;59.316;18.092;2023-02-24T14:51:06;3.33;;;1.00;;
7426;SDS011;3755;59.316;18.092;2023-02-24T14:53:51;6.50;;;1.47;;
7426;SDS011;3755;59.316;18.092;2023-02-24T14:56:36;2.97;;;1.40;;
7426;SDS011;3755;59.316;18.092;2023-02-24T14:59:06;4.87;;;1.53;;
7426;SDS011;3755;59.316;18.092;2023-02-24T15:05:27;2.37;;;1.10;;
7426;SDS011;3755;59.316;18.092;2023-02-24T15:08:09;4.67;;;1.60;;
7426;SDS011;3755;59.316;18.092;2023-02-24T15:10:52;4.43;;;1.60;;
7426;SDS011;3755;59.316;18.092;2023-02-24T15:13:25;2.37;;;1.30;;
7426;SDS011;3755;59.316;18.092;2023-02-24T15:16:13;2.90;;;1.10;;
7426;SDS011;3755;59.316;18.092;2023-02-24T15:19:01;3.50;;;1.20;;
7426;SDS011;3755;59.316;18.092;2023-02-24T15:21:44;2.37;;;1.17;;
7426;SDS011;3755;59.316;18.092;2023-02-24T15:24:16;4.00;;;1.63;;
7426;SDS011;3755;59.316;18.092;2023-02-24T15:26:50;4.27;;;1.00;;
7426;SDS011;3755;59.316;18.092;2023-02-24T15:30:23;5.07;;;1.67;;
7426;SDS011;3755;59.316;18.092;2023-02-24T15:33:13;4.10;;;1.33;;
7426;SDS011;3755;59.316;18.092;2023-02-24T15:36:07;3.83;;;1.10;;
7426;SDS011;3755;59.316;18.092;2023-02-24T15:38:39;5.90;;;2.07;;
7426;SDS011;3755;59.316;18.092;2023-02-24T15:41:10;2.60;;;1.00;;
7426;SDS011;3755;59.316;18.092;2023-02-24T15:43:54;2.33;;;0.90;;
7426;SDS011;3755;59.316;18.092;2023-02-24T15:46:26;3.53;;;1.33;;
7426;SDS011;3755;59.316;18.092;2023-02-24T15:49:11;3.67;;;1.13;;
7426;SDS011;3755;59.316;18.092;2023-02-24T15:51:43;4.27;;;1.00;;
7426;SDS011;3755;59.316;18.092;2023-02-24T15:54:33;4.00;;;1.70;;
7426;SDS011;3755;59.316;18.092;2023-02-24T15:57:21;5.23;;;1.77;;
7426;SDS011;3755;59.316;18.092;2023-02-24T15:59:49;2.77;;;1.23;;
7426;SDS011;3755;59.316;18.092;2023-02-24T16:02:19;2.23;;;1.60;;
7426;SDS011;3755;59.316;18.092;2023-02-24T16:04:49;2.77;;;0.97;;
7426;SDS011;3755;59.316;18.092;2023-02-24T16:07:20;3.07;;;1.50;;
7426;SDS011;3755;59.316;18.092;2023-02-24T16:10:16;2.50;;;1.00;;
7426;SDS011;3755;59.316;18.092;2023-02-24T16:12:52;4.80;;;1.77;;
7426;SDS011;3755;59.316;18.092;2023-02-24T16:15:23;8.00;;;1.77;;
7426;SDS011;3755;59.316;18.092;2023-02-24T16:17:56;5.57;;;1.47;;
7426;SDS011;3755;59.316;18.092;2023-02-24T16:20:27;3.73;;;1.30;;
7426;SDS011;3755;59.316;18.092;2023-02-24T16:26:00;4.27;;;1.43;;
7426;SDS011;3755;59.316;18.092;2023-02-24T16:28:30;2.77;;;1.43;;
7426;SDS011;3755;59.316;18.092;2023-02-24T16:30:58;1.47;;;0.80;;
7426;SDS011;3755;59.316;18.092;2023-02-24T16:33:39;5.27;;;1.27;;
7426;SDS011;3755;59.316;18.092;2023-02-24T16:36:12;3.07;;;1.07;;
7426;SDS011;3755;59.316;18.092;2023-02-24T16:38:59;3.10;;;0.80;;